sensor_id;sensor_type;location;lat;lon;timestamp;P1;durP1;ratioP1;P2;durP2;ratioP2
55114;SDS011;41010;53.252;5.786;2023-04-08T00:00:17;5.75;;;3.40;;
55114;SDS011;41010;53.252;5.786;2023-04-08T00:02:44;10.68;;;3.75;;
55114;SDS011;41010;53.252;5.786;2023-04-08T00:05:12;6.93;;;3.80;;
55114;SDS011;41010;53.252;5.786;2023-04-08T00:07:40;7.03;;;3.83;;
55114;SDS011;41010;53.252;5.786;2023-04-08T00:10:07;5.32;;;3.45;;
55114;SDS011;41010;53.252;5.786;2023-04-08T00:12:35;5.88;;;3.90;;
55114;SDS011;41010;53.252;5.786;2023-04-08T00:15:03;8.25;;;4.20;;
55114;SDS011;41010;53.252;5.786;2023-04-08T00:17:31;5.70;;;3.78;;
55114;SDS011;41010;53.252;5.786;2023-04-08T00:19:58;8.13;;;3.90;;
55114;SDS011;41010;53.252;5.786;2023-04-08T00:22:26;8.52;;;4.07;;
55114;SDS011;41010;53.252;5.786;2023-04-08T00:24:53;7.38;;;4.53;;
55114;SDS011;41010;53.252;5.786;2023-04-08T00:27:20;9.40;;;4.20;;
55114;SDS011;41010;53.252;5.786;2023-04-08T00:29:49;7.55;;;4.18;;
55114;SDS011;41010;53.252;5.786;2023-04-08T00:32:16;7.28;;;3.90;;
55114;SDS011;41010;53.252;5.786;2023-04-08T00:34:45;7.47;;;4.32;;
55114;SDS011;41010;53.252;5.786;2023-04-08T00:37:12;9.27;;;4.20;;
55114;SDS011;41010;53.252;5.786;2023-04-08T00:39:39;7.68;;;4.90;;
55114;SDS011;41010;53.252;5.786;2023-04-08T00:42:06;7.85;;;5.38;;
55114;SDS011;41010;53.252;5.786;2023-04-08T00:44:34;9.02;;;5.20;;
55114;SDS011;41010;53.252;5.786;2023-04-08T00:47:02;9.35;;;5.20;;
55114;SDS011;41010;53.252;5.786;2023-04-08T00:49:29;9.20;;;5.32;;
55114;SDS011;41010;53.252;5.786;2023-04-08T00:51:59;11.98;;;5.95;;
55114;SDS011;41010;53.252;5.786;2023-04-08T00:54:26;9.63;;;5.60;;
55114;SDS011;41010;53.252;5.786;2023-04-08T00:56:53;9.60;;;5.95;;
55114;SDS011;41010;53.252;5.786;2023-04-08T00:59:21;9.73;;;5.88;;
55114;SDS011;41010;53.252;5.786;2023-04-08T01:01:50;9.60;;;6.15;;
55114;SDS011;41010;53.252;5.786;2023-04-08T01:04:22;10.27;;;5.97;;
55114;SDS011;41010;53.252;5.786;2023-04-08T01:09:22;11.82;;;6.40;;
55114;SDS011;41010;53.252;5.786;2023-04-08T01:11:51;9.77;;;6.50;;
55114;SDS011;41010;53.252;5.786;2023-04-08T01:14:22;11.35;;;6.88;;
55114;SDS011;41010;53.252;5.786;2023-04-08T01:16:51;11.02;;;6.88;;
55114;SDS011;41010;53.252;5.786;2023-04-08T01:19:21;12.48;;;6.95;;
55114;SDS011;41010;53.252;5.786;2023-04-08T01:21:53;13.52;;;7.15;;
55114;SDS011;41010;53.252;5.786;2023-04-08T01:24:25;12.07;;;7.47;;
55114;SDS011;41010;53.252;5.786;2023-04-08T01:26:55;12.68;;;7.22;;
55114;SDS011;41010;53.252;5.786;2023-04-08T01:29:24;14.98;;;7.32;;
55114;SDS011;41010;53.252;5.786;2023-04-08T01:31:52;17.27;;;7.70;;
55114;SDS011;41010;53.252;5.786;2023-04-08T01:34:20;12.82;;;7.38;;
55114;SDS011;41010;53.252;5.786;2023-04-08T01:36:48;11.57;;;7.65;;
55114;SDS011;41010;53.252;5.786;2023-04-08T01:39:15;13.73;;;8.05;;
55114;SDS011;41010;53.252;5.786;2023-04-08T01:41:43;13.90;;;7.97;;
55114;SDS011;41010;53.252;5.786;2023-04-08T01:44:12;16.55;;;8.82;;
55114;SDS011;41010;53.252;5.786;2023-04-08T01:46:40;15.68;;;8.80;;
55114;SDS011;41010;53.252;5.786;2023-04-08T01:49:08;14.50;;;8.43;;
55114;SDS011;41010;53.252;5.786;2023-04-08T01:51:36;15.20;;;9.05;;
55114;SDS011;41010;53.252;5.786;2023-04-08T01:54:04;17.35;;;9.00;;
55114;SDS011;41010;53.252;5.786;2023-04-08T01:56:32;15.60;;;9.07;;
55114;SDS011;41010;53.252;5.786;2023-04-08T01:59:02;14.40;;;8.57;;
55114;SDS011;41010;53.252;5.786;2023-04-08T02:01:32;18.73;;;9.15;;
55114;SDS011;41010;53.252;5.786;2023-04-08T02:04:01;17.00;;;9.60;;
55114;SDS011;41010;53.252;5.786;2023-04-08T02:06:29;14.50;;;8.73;;
55114;SDS011;41010;53.252;5.786;2023-04-08T02:08:57;14.13;;;9.18;;
55114;SDS011;41010;53.252;5.786;2023-04-08T02:11:25;19.15;;;9.25;;
55114;SDS011;41010;53.252;5.786;2023-04-08T02:13:53;15.95;;;10.27;;
55114;SDS011;41010;53.252;5.786;2023-04-08T02:16:21;16.40;;;9.60;;
55114;SDS011;41010;53.252;5.786;2023-04-08T02:18:53;12.75;;;8.77;;
55114;SDS011;41010;53.252;5.786;2023-04-08T02:21:21;16.15;;;10.23;;
55114;SDS011;41010;53.252;5.786;2023-04-08T02:23:52;16.15;;;10.63;;
55114;SDS011;41010;53.252;5.786;2023-04-08T02:26:20;17.00;;;10.15;;
55114;SDS011;41010;53.252;5.786;2023-04-08T02:28:48;16.00;;;10.27;;
55114;SDS011;41010;53.252;5.786;2023-04-08T02:31:16;15.00;;;9.70;;
55114;SDS011;41010;53.252;5.786;2023-04-08T02:33:43;15.30;;;10.13;;
55114;SDS011;41010;53.252;5.786;2023-04-08T02:36:12;15.52;;;10.98;;
55114;SDS011;41010;53.252;5.786;2023-04-08T02:38:40;17.00;;;9.90;;
55114;SDS011;41010;53.252;5.786;2023-04-08T02:41:07;15.63;;;11.05;;
55114;SDS011;41010;53.252;5.786;2023-04-08T02:43:35;19.73;;;11.00;;
55114;SDS011;41010;53.252;5.786;2023-04-08T02:46:02;16.73;;;11.00;;
55114;SDS011;41010;53.252;5.786;2023-04-08T02:48:29;19.35;;;12.25;;
55114;SDS011;41010;53.252;5.786;2023-04-08T02:50:57;19.02;;;11.50;;
55114;SDS011;41010;53.252;5.786;2023-04-08T02:53:25;18.23;;;11.63;;
55114;SDS011;41010;53.252;5.786;2023-04-08T02:55:53;20.33;;;12.18;;
55114;SDS011;41010;53.252;5.786;2023-04-08T02:58:20;18.50;;;10.93;;
55114;SDS011;41010;53.252;5.786;2023-04-08T03:00:47;17.02;;;11.68;;
55114;SDS011;41010;53.252;5.786;2023-04-08T03:03:15;19.73;;;12.52;;
55114;SDS011;41010;53.252;5.786;2023-04-08T03:05:42;18.25;;;11.20;;
55114;SDS011;41010;53.252;5.786;2023-04-08T03:08:09;20.50;;;13.32;;
55114;SDS011;41010;53.252;5.786;2023-04-08T03:10:38;20.73;;;12.60;;
55114;SDS011;41010;53.252;5.786;2023-04-08T03:13:05;18.10;;;12.10;;
55114;SDS011;41010;53.252;5.786;2023-04-08T03:15:32;19.55;;;13.48;;
55114;SDS011;41010;53.252;5.786;2023-04-08T03:18:00;21.90;;;13.95;;
55114;SDS011;41010;53.252;5.786;2023-04-08T03:20:27;25.98;;;14.80;;
55114;SDS011;41010;53.252;5.786;2023-04-08T03:22:54;19.75;;;13.05;;
55114;SDS011;41010;53.252;5.786;2023-04-08T03:25:21;21.20;;;14.13;;
55114;SDS011;41010;53.252;5.786;2023-04-08T03:27:50;25.17;;;14.20;;
55114;SDS011;41010;53.252;5.786;2023-04-08T03:30:17;25.58;;;15.43;;
55114;SDS011;41010;53.252;5.786;2023-04-08T03:32:45;23.42;;;14.65;;
55114;SDS011;41010;53.252;5.786;2023-04-08T03:35:12;24.75;;;14.98;;
55114;SDS011;41010;53.252;5.786;2023-04-08T03:37:39;24.85;;;16.45;;
55114;SDS011;41010;53.252;5.786;2023-04-08T03:40:07;24.67;;;16.08;;
55114;SDS011;41010;53.252;5.786;2023-04-08T03:42:35;28.98;;;15.95;;
55114;SDS011;41010;53.252;5.786;2023-04-08T03:45:04;25.48;;;16.67;;
55114;SDS011;41010;53.252;5.786;2023-04-08T03:47:32;27.40;;;15.93;;
55114;SDS011;41010;53.252;5.786;2023-04-08T03:49:59;26.77;;;15.75;;
55114;SDS011;41010;53.252;5.786;2023-04-08T03:52:27;27.27;;;16.90;;
55114;SDS011;41010;53.252;5.786;2023-04-08T03:54:54;28.15;;;17.90;;
55114;SDS011;41010;53.252;5.786;2023-04-08T03:57:22;28.92;;;16.50;;
55114;SDS011;41010;53.252;5.786;2023-04-08T03:59:49;25.50;;;16.98;;
55114;SDS011;41010;53.252;5.786;2023-04-08T04:02:18;27.77;;;17.30;;
55114;SDS011;41010;53.252;5.786;2023-04-08T04:04:45;27.30;;;17.90;;
55114;SDS011;41010;53.252;5.786;2023-04-08T04:07:12;29.63;;;17.80;;
55114;SDS011;41010;53.252;5.786;2023-04-08T04:09:39;30.77;;;17.98;;
55114;SDS011;41010;53.252;5.786;2023-04-08T04:12:06;26.50;;;17.85;;
55114;SDS011;41010;53.252;5.786;2023-04-08T04:14:34;28.95;;;17.85;;
55114;SDS011;41010;53.252;5.786;2023-04-08T04:17:01;28.52;;;18.13;;
55114;SDS011;41010;53.252;5.786;2023-04-08T04:19:30;27.83;;;17.88;;
55114;SDS011;41010;53.252;5.786;2023-04-08T04:21:57;25.00;;;16.98;;
55114;SDS011;41010;53.252;5.786;2023-04-08T04:24:24;29.98;;;18.08;;
55114;SDS011;41010;53.252;5.786;2023-04-08T04:26:52;29.83;;;18.33;;
55114;SDS011;41010;53.252;5.786;2023-04-08T04:29:19;32.75;;;18.77;;
55114;SDS011;41010;53.252;5.786;2023-04-08T04:31:46;26.80;;;18.33;;
55114;SDS011;41010;53.252;5.786;2023-04-08T04:34:14;25.40;;;17.45;;
55114;SDS011;41010;53.252;5.786;2023-04-08T04:36:43;29.42;;;17.33;;
55114;SDS011;41010;53.252;5.786;2023-04-08T04:39:10;29.27;;;18.80;;
55114;SDS011;41010;53.252;5.786;2023-04-08T04:41:38;29.13;;;18.48;;
55114;SDS011;41010;53.252;5.786;2023-04-08T04:44:05;28.13;;;17.90;;
55114;SDS011;41010;53.252;5.786;2023-04-08T04:46:32;31.42;;;19.45;;
55114;SDS011;41010;53.252;5.786;2023-04-08T04:49:00;27.73;;;17.98;;
55114;SDS011;41010;53.252;5.786;2023-04-08T04:51:27;23.40;;;16.85;;
55114;SDS011;41010;53.252;5.786;2023-04-08T04:54:01;26.52;;;16.95;;
55114;SDS011;41010;53.252;5.786;2023-04-08T04:56:31;28.48;;;18.15;;
55114;SDS011;41010;53.252;5.786;2023-04-08T04:58:58;29.00;;;16.70;;
55114;SDS011;41010;53.252;5.786;2023-04-08T05:01:25;31.20;;;18.45;;
55114;SDS011;41010;53.252;5.786;2023-04-08T05:03:54;31.00;;;18.85;;
55114;SDS011;41010;53.252;5.786;2023-04-08T05:06:21;29.42;;;17.25;;
55114;SDS011;41010;53.252;5.786;2023-04-08T05:08:50;34.22;;;18.38;;
55114;SDS011;41010;53.252;5.786;2023-04-08T05:11:19;27.38;;;17.58;;
55114;SDS011;41010;53.252;5.786;2023-04-08T05:13:46;28.95;;;18.42;;
55114;SDS011;41010;53.252;5.786;2023-04-08T05:16:14;28.98;;;18.30;;
55114;SDS011;41010;53.252;5.786;2023-04-08T05:18:41;27.50;;;18.02;;
55114;SDS011;41010;53.252;5.786;2023-04-08T05:21:09;31.13;;;20.90;;
55114;SDS011;41010;53.252;5.786;2023-04-08T05:23:36;31.30;;;19.98;;
55114;SDS011;41010;53.252;5.786;2023-04-08T05:26:05;31.35;;;20.02;;
55114;SDS011;41010;53.252;5.786;2023-04-08T05:28:34;37.28;;;21.90;;
55114;SDS011;41010;53.252;5.786;2023-04-08T05:31:01;33.30;;;19.38;;
55114;SDS011;41010;53.252;5.786;2023-04-08T05:33:28;33.70;;;19.77;;
55114;SDS011;41010;53.252;5.786;2023-04-08T05:35:56;36.60;;;22.15;;
55114;SDS011;41010;53.252;5.786;2023-04-08T05:38:23;43.20;;;24.20;;
55114;SDS011;41010;53.252;5.786;2023-04-08T05:40:50;37.03;;;21.70;;
55114;SDS011;41010;53.252;5.786;2023-04-08T05:43:17;41.40;;;22.02;;
55114;SDS011;41010;53.252;5.786;2023-04-08T05:45:46;34.15;;;20.58;;
55114;SDS011;41010;53.252;5.786;2023-04-08T05:48:13;35.63;;;21.25;;
55114;SDS011;41010;53.252;5.786;2023-04-08T05:50:41;38.53;;;21.55;;
55114;SDS011;41010;53.252;5.786;2023-04-08T05:53:08;32.55;;;20.95;;
55114;SDS011;41010;53.252;5.786;2023-04-08T05:55:35;37.28;;;22.08;;
55114;SDS011;41010;53.252;5.786;2023-04-08T05:58:03;33.88;;;22.40;;
55114;SDS011;41010;53.252;5.786;2023-04-08T06:00:30;32.15;;;19.98;;
55114;SDS011;41010;53.252;5.786;2023-04-08T06:02:59;37.65;;;22.25;;
55114;SDS011;41010;53.252;5.786;2023-04-08T06:05:26;33.75;;;20.52;;
55114;SDS011;41010;53.252;5.786;2023-04-08T06:07:53;34.50;;;22.42;;
55114;SDS011;41010;53.252;5.786;2023-04-08T06:10:20;32.30;;;20.55;;
55114;SDS011;41010;53.252;5.786;2023-04-08T06:12:48;35.80;;;22.85;;
55114;SDS011;41010;53.252;5.786;2023-04-08T06:15:15;35.72;;;21.58;;
55114;SDS011;41010;53.252;5.786;2023-04-08T06:17:42;37.42;;;21.60;;
55114;SDS011;41010;53.252;5.786;2023-04-08T06:20:11;32.45;;;20.67;;
55114;SDS011;41010;53.252;5.786;2023-04-08T06:22:38;33.88;;;21.73;;
55114;SDS011;41010;53.252;5.786;2023-04-08T06:25:06;32.20;;;21.55;;
55114;SDS011;41010;53.252;5.786;2023-04-08T06:27:33;30.75;;;20.15;;
55114;SDS011;41010;53.252;5.786;2023-04-08T06:30:00;33.78;;;21.42;;
55114;SDS011;41010;53.252;5.786;2023-04-08T06:32:27;33.17;;;20.27;;
55114;SDS011;41010;53.252;5.786;2023-04-08T06:34:55;28.95;;;19.50;;
55114;SDS011;41010;53.252;5.786;2023-04-08T06:37:23;31.35;;;20.95;;
55114;SDS011;41010;53.252;5.786;2023-04-08T06:39:50;32.47;;;20.90;;
55114;SDS011;41010;53.252;5.786;2023-04-08T06:42:18;33.55;;;21.08;;
55114;SDS011;41010;53.252;5.786;2023-04-08T06:44:45;35.92;;;22.30;;
55114;SDS011;41010;53.252;5.786;2023-04-08T06:47:12;36.78;;;21.80;;
55114;SDS011;41010;53.252;5.786;2023-04-08T06:49:41;35.78;;;22.33;;
55114;SDS011;41010;53.252;5.786;2023-04-08T06:52:08;33.50;;;21.50;;
55114;SDS011;41010;53.252;5.786;2023-04-08T06:54:37;33.13;;;22.83;;
55114;SDS011;41010;53.252;5.786;2023-04-08T06:57:04;37.22;;;21.92;;
55114;SDS011;41010;53.252;5.786;2023-04-08T06:59:31;34.38;;;22.35;;
55114;SDS011;41010;53.252;5.786;2023-04-08T07:01:58;34.65;;;21.77;;
55114;SDS011;41010;53.252;5.786;2023-04-08T07:04:26;33.80;;;22.85;;
55114;SDS011;41010;53.252;5.786;2023-04-08T07:06:53;30.40;;;20.75;;
55114;SDS011;41010;53.252;5.786;2023-04-08T07:09:20;31.80;;;22.63;;
55114;SDS011;41010;53.252;5.786;2023-04-08T07:11:49;28.35;;;20.23;;
55114;SDS011;41010;53.252;5.786;2023-04-08T07:14:16;34.55;;;21.75;;
55114;SDS011;41010;53.252;5.786;2023-04-08T07:16:44;34.72;;;20.77;;
55114;SDS011;41010;53.252;5.786;2023-04-08T07:19:11;35.28;;;21.77;;
55114;SDS011;41010;53.252;5.786;2023-04-08T07:21:39;31.23;;;21.38;;
55114;SDS011;41010;53.252;5.786;2023-04-08T07:24:06;34.55;;;22.30;;
55114;SDS011;41010;53.252;5.786;2023-04-08T07:26:33;33.60;;;22.00;;
55114;SDS011;41010;53.252;5.786;2023-04-08T07:29:02;30.77;;;21.15;;
55114;SDS011;41010;53.252;5.786;2023-04-08T07:31:29;31.30;;;20.25;;
55114;SDS011;41010;53.252;5.786;2023-04-08T07:33:57;31.13;;;20.98;;
55114;SDS011;41010;53.252;5.786;2023-04-08T07:36:24;29.88;;;18.88;;
55114;SDS011;41010;53.252;5.786;2023-04-08T07:38:52;29.65;;;20.33;;
55114;SDS011;41010;53.252;5.786;2023-04-08T07:41:19;29.27;;;19.23;;
55114;SDS011;41010;53.252;5.786;2023-04-08T07:43:47;27.00;;;19.30;;
55114;SDS011;41010;53.252;5.786;2023-04-08T07:46:15;28.08;;;18.48;;
55114;SDS011;41010;53.252;5.786;2023-04-08T07:48:43;21.40;;;16.20;;
55114;SDS011;41010;53.252;5.786;2023-04-08T07:51:10;22.85;;;15.48;;
55114;SDS011;41010;53.252;5.786;2023-04-08T07:53:37;21.60;;;15.00;;
55114;SDS011;41010;53.252;5.786;2023-04-08T07:56:09;21.38;;;15.18;;
55114;SDS011;41010;53.252;5.786;2023-04-08T07:58:37;19.35;;;13.18;;
55114;SDS011;41010;53.252;5.786;2023-04-08T08:01:13;20.75;;;13.75;;
55114;SDS011;41010;53.252;5.786;2023-04-08T08:03:41;19.70;;;13.73;;
55114;SDS011;41010;53.252;5.786;2023-04-08T08:06:10;20.80;;;13.48;;
55114;SDS011;41010;53.252;5.786;2023-04-08T08:08:37;19.38;;;13.65;;
55114;SDS011;41010;53.252;5.786;2023-04-08T08:11:04;17.13;;;11.80;;
55114;SDS011;41010;53.252;5.786;2023-04-08T08:13:31;17.55;;;12.15;;
55114;SDS011;41010;53.252;5.786;2023-04-08T08:15:59;15.57;;;9.70;;
55114;SDS011;41010;53.252;5.786;2023-04-08T08:18:26;16.13;;;10.50;;
55114;SDS011;41010;53.252;5.786;2023-04-08T08:20:55;13.43;;;9.18;;
55114;SDS011;41010;53.252;5.786;2023-04-08T08:23:22;14.88;;;10.13;;
55114;SDS011;41010;53.252;5.786;2023-04-08T08:25:53;16.33;;;10.50;;
55114;SDS011;41010;53.252;5.786;2023-04-08T08:28:24;14.32;;;10.35;;
55114;SDS011;41010;53.252;5.786;2023-04-08T08:30:52;14.30;;;10.10;;
55114;SDS011;41010;53.252;5.786;2023-04-08T08:33:19;17.17;;;10.07;;
55114;SDS011;41010;53.252;5.786;2023-04-08T08:35:47;15.10;;;9.63;;
55114;SDS011;41010;53.252;5.786;2023-04-08T08:38:15;14.32;;;9.35;;
55114;SDS011;41010;53.252;5.786;2023-04-08T08:40:43;12.70;;;8.23;;
55114;SDS011;41010;53.252;5.786;2023-04-08T08:43:10;13.05;;;8.85;;
55114;SDS011;41010;53.252;5.786;2023-04-08T08:45:38;12.68;;;8.50;;
55114;SDS011;41010;53.252;5.786;2023-04-08T08:48:06;11.23;;;8.63;;
55114;SDS011;41010;53.252;5.786;2023-04-08T08:50:34;12.43;;;8.85;;
55114;SDS011;41010;53.252;5.786;2023-04-08T08:53:01;12.45;;;7.93;;
55114;SDS011;41010;53.252;5.786;2023-04-08T08:55:30;13.23;;;8.15;;
55114;SDS011;41010;53.252;5.786;2023-04-08T08:57:58;14.32;;;8.48;;
55114;SDS011;41010;53.252;5.786;2023-04-08T09:00:32;11.40;;;7.68;;
55114;SDS011;41010;53.252;5.786;2023-04-08T09:03:14;18.77;;;9.13;;
55114;SDS011;41010;53.252;5.786;2023-04-08T09:05:48;9.82;;;7.30;;
55114;SDS011;41010;53.252;5.786;2023-04-08T09:08:25;10.85;;;7.57;;
55114;SDS011;41010;53.252;5.786;2023-04-08T09:10:54;10.38;;;7.68;;
55114;SDS011;41010;53.252;5.786;2023-04-08T09:13:22;12.18;;;8.23;;
55114;SDS011;41010;53.252;5.786;2023-04-08T09:16:00;13.68;;;8.35;;
55114;SDS011;41010;53.252;5.786;2023-04-08T09:18:29;12.77;;;8.48;;
55114;SDS011;41010;53.252;5.786;2023-04-08T09:20:58;10.70;;;7.72;;
55114;SDS011;41010;53.252;5.786;2023-04-08T09:23:36;11.65;;;8.93;;
55114;SDS011;41010;53.252;5.786;2023-04-08T09:26:07;12.10;;;8.32;;
55114;SDS011;41010;53.252;5.786;2023-04-08T09:28:35;13.07;;;8.48;;
55114;SDS011;41010;53.252;5.786;2023-04-08T09:31:09;12.73;;;9.23;;
55114;SDS011;41010;53.252;5.786;2023-04-08T09:33:43;13.52;;;8.82;;
55114;SDS011;41010;53.252;5.786;2023-04-08T09:36:11;13.20;;;8.52;;
55114;SDS011;41010;53.252;5.786;2023-04-08T09:38:38;12.63;;;9.15;;
55114;SDS011;41010;53.252;5.786;2023-04-08T09:41:07;12.48;;;8.85;;
55114;SDS011;41010;53.252;5.786;2023-04-08T09:43:35;14.48;;;9.50;;
55114;SDS011;41010;53.252;5.786;2023-04-08T09:46:02;15.13;;;9.80;;
55114;SDS011;41010;53.252;5.786;2023-04-08T09:48:35;14.43;;;9.98;;
55114;SDS011;41010;53.252;5.786;2023-04-08T09:51:02;14.15;;;9.85;;
55114;SDS011;41010;53.252;5.786;2023-04-08T09:53:33;13.68;;;9.55;;
55114;SDS011;41010;53.252;5.786;2023-04-08T09:56:01;11.80;;;8.93;;
55114;SDS011;41010;53.252;5.786;2023-04-08T09:58:31;13.27;;;9.57;;
55114;SDS011;41010;53.252;5.786;2023-04-08T10:00:59;14.93;;;10.27;;
55114;SDS011;41010;53.252;5.786;2023-04-08T10:03:28;15.93;;;9.88;;
55114;SDS011;41010;53.252;5.786;2023-04-08T10:05:56;15.07;;;9.57;;
55114;SDS011;41010;53.252;5.786;2023-04-08T10:08:24;16.95;;;9.38;;
55114;SDS011;41010;53.252;5.786;2023-04-08T10:10:53;14.75;;;9.68;;
55114;SDS011;41010;53.252;5.786;2023-04-08T10:13:21;12.80;;;9.02;;
55114;SDS011;41010;53.252;5.786;2023-04-08T10:15:50;15.45;;;9.50;;
55114;SDS011;41010;53.252;5.786;2023-04-08T10:18:37;12.77;;;8.85;;
55114;SDS011;41010;53.252;5.786;2023-04-08T10:21:05;14.00;;;9.60;;
55114;SDS011;41010;53.252;5.786;2023-04-08T10:23:53;11.52;;;8.88;;
55114;SDS011;41010;53.252;5.786;2023-04-08T10:26:30;12.52;;;9.27;;
55114;SDS011;41010;53.252;5.786;2023-04-08T10:31:50;15.80;;;10.45;;
55114;SDS011;41010;53.252;5.786;2023-04-08T10:34:17;15.88;;;11.05;;
55114;SDS011;41010;53.252;5.786;2023-04-08T10:36:45;15.40;;;10.35;;
55114;SDS011;41010;53.252;5.786;2023-04-08T10:39:13;14.95;;;10.48;;
55114;SDS011;41010;53.252;5.786;2023-04-08T10:41:40;13.93;;;10.40;;
55114;SDS011;41010;53.252;5.786;2023-04-08T10:44:14;14.25;;;10.45;;
55114;SDS011;41010;53.252;5.786;2023-04-08T10:46:42;16.40;;;10.70;;
55114;SDS011;41010;53.252;5.786;2023-04-08T10:49:10;16.25;;;10.38;;
55114;SDS011;41010;53.252;5.786;2023-04-08T10:51:38;13.82;;;10.60;;
55114;SDS011;41010;53.252;5.786;2023-04-08T10:54:05;13.07;;;9.80;;
55114;SDS011;41010;53.252;5.786;2023-04-08T10:56:33;16.05;;;9.88;;
55114;SDS011;41010;53.252;5.786;2023-04-08T10:59:01;13.15;;;8.95;;
55114;SDS011;41010;53.252;5.786;2023-04-08T11:01:36;15.40;;;9.60;;
55114;SDS011;41010;53.252;5.786;2023-04-08T11:04:06;12.18;;;8.57;;
55114;SDS011;41010;53.252;5.786;2023-04-08T11:06:36;14.93;;;9.13;;
55114;SDS011;41010;53.252;5.786;2023-04-08T11:09:04;12.65;;;8.50;;
55114;SDS011;41010;53.252;5.786;2023-04-08T11:11:31;12.95;;;9.07;;
55114;SDS011;41010;53.252;5.786;2023-04-08T11:13:58;14.13;;;8.68;;
55114;SDS011;41010;53.252;5.786;2023-04-08T11:16:26;16.05;;;8.82;;
55114;SDS011;41010;53.252;5.786;2023-04-08T11:18:54;13.73;;;8.88;;
55114;SDS011;41010;53.252;5.786;2023-04-08T11:21:22;14.02;;;8.95;;
55114;SDS011;41010;53.252;5.786;2023-04-08T11:23:54;13.65;;;8.88;;
55114;SDS011;41010;53.252;5.786;2023-04-08T11:26:21;13.60;;;9.35;;
55114;SDS011;41010;53.252;5.786;2023-04-08T11:28:49;14.50;;;9.13;;
55114;SDS011;41010;53.252;5.786;2023-04-08T11:31:16;15.05;;;9.40;;
55114;SDS011;41010;53.252;5.786;2023-04-08T11:33:44;14.18;;;9.23;;
55114;SDS011;41010;53.252;5.786;2023-04-08T11:36:13;17.80;;;9.57;;
55114;SDS011;41010;53.252;5.786;2023-04-08T11:38:40;16.20;;;10.25;;
55114;SDS011;41010;53.252;5.786;2023-04-08T11:41:09;18.08;;;10.15;;
55114;SDS011;41010;53.252;5.786;2023-04-08T11:43:36;16.38;;;10.02;;
55114;SDS011;41010;53.252;5.786;2023-04-08T11:46:07;16.67;;;10.63;;
55114;SDS011;41010;53.252;5.786;2023-04-08T11:48:35;17.23;;;9.93;;
55114;SDS011;41010;53.252;5.786;2023-04-08T11:51:04;14.75;;;9.63;;
55114;SDS011;41010;53.252;5.786;2023-04-08T11:53:33;16.15;;;10.68;;
55114;SDS011;41010;53.252;5.786;2023-04-08T11:56:16;21.05;;;11.05;;
55114;SDS011;41010;53.252;5.786;2023-04-08T11:58:43;16.13;;;9.80;;
55114;SDS011;41010;53.252;5.786;2023-04-08T12:01:11;19.20;;;10.95;;
55114;SDS011;41010;53.252;5.786;2023-04-08T12:03:38;24.33;;;11.63;;
55114;SDS011;41010;53.252;5.786;2023-04-08T12:06:05;20.30;;;12.18;;
55114;SDS011;41010;53.252;5.786;2023-04-08T12:08:33;20.92;;;12.15;;
55114;SDS011;41010;53.252;5.786;2023-04-08T12:11:01;26.83;;;13.20;;
55114;SDS011;41010;53.252;5.786;2023-04-08T12:13:29;24.92;;;13.20;;
55114;SDS011;41010;53.252;5.786;2023-04-08T12:15:56;25.67;;;14.00;;
55114;SDS011;41010;53.252;5.786;2023-04-08T12:18:24;27.00;;;14.60;;
55114;SDS011;41010;53.252;5.786;2023-04-08T12:20:51;25.05;;;14.82;;
55114;SDS011;41010;53.252;5.786;2023-04-08T12:23:18;30.75;;;15.82;;
55114;SDS011;41010;53.252;5.786;2023-04-08T12:25:46;29.38;;;16.60;;
55114;SDS011;41010;53.252;5.786;2023-04-08T12:28:13;27.40;;;15.50;;
55114;SDS011;41010;53.252;5.786;2023-04-08T12:30:42;25.63;;;15.45;;
55114;SDS011;41010;53.252;5.786;2023-04-08T12:33:10;32.58;;;15.45;;
55114;SDS011;41010;53.252;5.786;2023-04-08T12:35:38;30.95;;;16.23;;
55114;SDS011;41010;53.252;5.786;2023-04-08T12:38:05;25.38;;;14.32;;
55114;SDS011;41010;53.252;5.786;2023-04-08T12:40:32;33.80;;;16.00;;
55114;SDS011;41010;53.252;5.786;2023-04-08T12:43:00;26.20;;;16.10;;
55114;SDS011;41010;53.252;5.786;2023-04-08T12:45:27;23.02;;;14.60;;
55114;SDS011;41010;53.252;5.786;2023-04-08T12:47:55;26.40;;;15.40;;
55114;SDS011;41010;53.252;5.786;2023-04-08T12:50:23;26.65;;;15.25;;
55114;SDS011;41010;53.252;5.786;2023-04-08T12:52:50;27.42;;;15.52;;
55114;SDS011;41010;53.252;5.786;2023-04-08T12:55:17;24.48;;;14.52;;
55114;SDS011;41010;53.252;5.786;2023-04-08T12:57:48;22.90;;;14.25;;
55114;SDS011;41010;53.252;5.786;2023-04-08T13:00:16;24.27;;;14.55;;
55114;SDS011;41010;53.252;5.786;2023-04-08T13:02:43;26.13;;;14.48;;
55114;SDS011;41010;53.252;5.786;2023-04-08T13:05:12;24.70;;;14.80;;
55114;SDS011;41010;53.252;5.786;2023-04-08T13:07:39;23.67;;;14.27;;
55114;SDS011;41010;53.252;5.786;2023-04-08T13:10:07;28.85;;;15.15;;
55114;SDS011;41010;53.252;5.786;2023-04-08T13:12:34;22.80;;;13.23;;
55114;SDS011;41010;53.252;5.786;2023-04-08T13:15:04;19.80;;;13.45;;
55114;SDS011;41010;53.252;5.786;2023-04-08T13:17:32;29.23;;;13.65;;
55114;SDS011;41010;53.252;5.786;2023-04-08T13:19:59;23.27;;;14.25;;
55114;SDS011;41010;53.252;5.786;2023-04-08T13:22:28;22.73;;;13.57;;
55114;SDS011;41010;53.252;5.786;2023-04-08T13:24:58;22.35;;;12.98;;
55114;SDS011;41010;53.252;5.786;2023-04-08T13:27:25;20.35;;;12.75;;
55114;SDS011;41010;53.252;5.786;2023-04-08T13:29:53;21.67;;;12.50;;
55114;SDS011;41010;53.252;5.786;2023-04-08T13:32:20;21.85;;;13.60;;
55114;SDS011;41010;53.252;5.786;2023-04-08T13:34:47;26.02;;;13.77;;
55114;SDS011;41010;53.252;5.786;2023-04-08T13:37:15;21.70;;;12.57;;
55114;SDS011;41010;53.252;5.786;2023-04-08T13:39:43;25.75;;;12.90;;
55114;SDS011;41010;53.252;5.786;2023-04-08T13:42:11;21.45;;;12.32;;
55114;SDS011;41010;53.252;5.786;2023-04-08T13:44:38;21.05;;;13.05;;
55114;SDS011;41010;53.252;5.786;2023-04-08T13:47:05;23.17;;;12.70;;
55114;SDS011;41010;53.252;5.786;2023-04-08T13:49:32;22.30;;;12.38;;
55114;SDS011;41010;53.252;5.786;2023-04-08T13:52:00;20.80;;;12.68;;
55114;SDS011;41010;53.252;5.786;2023-04-08T13:54:27;21.02;;;11.85;;
55114;SDS011;41010;53.252;5.786;2023-04-08T13:56:56;20.48;;;11.20;;
55114;SDS011;41010;53.252;5.786;2023-04-08T13:59:23;18.42;;;11.52;;
55114;SDS011;41010;53.252;5.786;2023-04-08T14:01:51;21.42;;;10.85;;
55114;SDS011;41010;53.252;5.786;2023-04-08T14:04:19;19.65;;;12.10;;
55114;SDS011;41010;53.252;5.786;2023-04-08T14:06:47;17.40;;;10.85;;
55114;SDS011;41010;53.252;5.786;2023-04-08T14:09:15;18.42;;;10.55;;
55114;SDS011;41010;53.252;5.786;2023-04-08T14:11:43;18.67;;;9.35;;
55114;SDS011;41010;53.252;5.786;2023-04-08T14:14:12;16.98;;;9.30;;
55114;SDS011;41010;53.252;5.786;2023-04-08T14:16:39;16.75;;;9.98;;
55114;SDS011;41010;53.252;5.786;2023-04-08T14:19:07;15.43;;;9.30;;
55114;SDS011;41010;53.252;5.786;2023-04-08T14:21:34;18.00;;;9.63;;
55114;SDS011;41010;53.252;5.786;2023-04-08T14:24:03;14.13;;;9.10;;
55114;SDS011;41010;53.252;5.786;2023-04-08T14:26:30;13.82;;;8.35;;
55114;SDS011;41010;53.252;5.786;2023-04-08T14:29:00;11.48;;;7.90;;
55114;SDS011;41010;53.252;5.786;2023-04-08T14:31:30;22.10;;;8.05;;
55114;SDS011;41010;53.252;5.786;2023-04-08T14:33:57;14.63;;;8.43;;
55114;SDS011;41010;53.252;5.786;2023-04-08T14:36:24;13.68;;;8.18;;
55114;SDS011;41010;53.252;5.786;2023-04-08T14:38:52;15.70;;;9.15;;